sensor_id;sensor_type;location;lat;lon;timestamp;pressure;altitude;pressure_sealevel;temperature;humidity
84289;BME280;75147;50.294;18.660;2024-02-26T00:02:23;98123.91;;;5.85;71.53
84289;BME280;75147;50.294;18.660;2024-02-26T00:04:48;98122.50;;;5.81;71.94
84289;BME280;75147;50.294;18.660;2024-02-26T00:07:14;98124.47;;;5.78;71.94
84289;BME280;75147;50.294;18.660;2024-02-26T00:09:39;98117.94;;;5.74;72.19
84289;BME280;75147;50.294;18.660;2024-02-26T00:12:05;98111.25;;;5.71;71.66
84289;BME280;75147;50.294;18.660;2024-02-26T00:14:31;98118.41;;;5.68;72.09
84289;BME280;75147;50.294;18.660;2024-02-26T00:16:56;98112.78;;;5.63;72.65
84289;BME280;75147;50.294;18.660;2024-02-26T00:19:22;98119.56;;;5.64;71.87
84289;BME280;75147;50.294;18.660;2024-02-26T00:21:47;98105.38;;;5.58;72.90
84289;BME280;75147;50.294;18.660;2024-02-26T00:24:13;98114.88;;;5.57;72.68
84289;BME280;75147;50.294;18.660;2024-02-26T00:26:38;98111.69;;;5.54;72.94
84289;BME280;75147;50.294;18.660;2024-02-26T00:29:03;98114.38;;;5.52;72.19
84289;BME280;75147;50.294;18.660;2024-02-26T00:31:29;98120.59;;;5.50;73.02
84289;BME280;75147;50.294;18.660;2024-02-26T00:33:54;98113.91;;;5.47;72.47
84289;BME280;75147;50.294;18.660;2024-02-26T00:36:20;98127.03;;;5.44;73.13
84289;BME280;75147;50.294;18.660;2024-02-26T00:38:46;98129.59;;;5.44;72.88
84289;BME280;75147;50.294;18.660;2024-02-26T00:41:19;98117.75;;;5.42;73.16
84289;BME280;75147;50.294;18.660;2024-02-26T00:43:44;98123.13;;;5.39;73.09
84289;BME280;75147;50.294;18.660;2024-02-26T00:46:10;98133.44;;;5.39;72.98
84289;BME280;75147;50.294;18.660;2024-02-26T00:48:35;98127.47;;;5.38;73.85
84289;BME280;75147;50.294;18.660;2024-02-26T00:51:01;98128.41;;;5.37;73.31
84289;BME280;75147;50.294;18.660;2024-02-26T00:53:26;98121.84;;;5.33;73.93
84289;BME280;75147;50.294;18.660;2024-02-26T00:55:51;98124.41;;;5.33;73.56
84289;BME280;75147;50.294;18.660;2024-02-26T00:58:17;98128.88;;;5.31;73.84
84289;BME280;75147;50.294;18.660;2024-02-26T01:00:43;98123.00;;;5.29;73.64
84289;BME280;75147;50.294;18.660;2024-02-26T01:03:08;98123.81;;;5.30;74.23
84289;BME280;75147;50.294;18.660;2024-02-26T01:05:35;98129.09;;;5.28;74.19
84289;BME280;75147;50.294;18.660;2024-02-26T01:08:01;98124.88;;;5.27;73.67
84289;BME280;75147;50.294;18.660;2024-02-26T01:10:26;98121.72;;;5.24;73.93
84289;BME280;75147;50.294;18.660;2024-02-26T01:12:52;98123.56;;;5.21;73.74
84289;BME280;75147;50.294;18.660;2024-02-26T01:15:17;98116.09;;;5.18;73.96
84289;BME280;75147;50.294;18.660;2024-02-26T01:17:47;98118.66;;;5.18;74.07
84289;BME280;75147;50.294;18.660;2024-02-26T01:20:12;98119.44;;;5.19;74.55
84289;BME280;75147;50.294;18.660;2024-02-26T01:22:38;98115.56;;;5.13;73.85
84289;BME280;75147;50.294;18.660;2024-02-26T01:25:04;98117.22;;;5.14;74.24
84289;BME280;75147;50.294;18.660;2024-02-26T01:27:29;98108.09;;;5.10;74.39
84289;BME280;75147;50.294;18.660;2024-02-26T01:29:55;98111.59;;;5.09;74.92
84289;BME280;75147;50.294;18.660;2024-02-26T01:32:20;98100.56;;;5.07;74.75
84289;BME280;75147;50.294;18.660;2024-02-26T01:34:45;98100.69;;;5.06;74.71
84289;BME280;75147;50.294;18.660;2024-02-26T01:37:11;98103.59;;;5.01;75.19
84289;BME280;75147;50.294;18.660;2024-02-26T01:39:36;98100.19;;;5.01;75.62
84289;BME280;75147;50.294;18.660;2024-02-26T01:42:02;98102.19;;;4.97;74.96
84289;BME280;75147;50.294;18.660;2024-02-26T01:44:27;98101.38;;;4.97;75.11
84289;BME280;75147;50.294;18.660;2024-02-26T01:46:53;98100.75;;;4.93;75.34
84289;BME280;75147;50.294;18.660;2024-02-26T01:49:19;98099.25;;;4.91;75.63
84289;BME280;75147;50.294;18.660;2024-02-26T01:51:45;98095.22;;;4.87;75.80
84289;BME280;75147;50.294;18.660;2024-02-26T01:54:10;98095.22;;;4.87;75.76
84289;BME280;75147;50.294;18.660;2024-02-26T01:56:36;98098.88;;;4.84;76.04
84289;BME280;75147;50.294;18.660;2024-02-26T01:59:03;98100.81;;;4.80;75.58
84289;BME280;75147;50.294;18.660;2024-02-26T02:01:31;98093.44;;;4.76;75.65
84289;BME280;75147;50.294;18.660;2024-02-26T02:03:58;98102.91;;;4.75;75.25
84289;BME280;75147;50.294;18.660;2024-02-26T02:06:24;98100.44;;;4.74;75.15
84289;BME280;75147;50.294;18.660;2024-02-26T02:08:49;98103.34;;;4.69;75.90
84289;BME280;75147;50.294;18.660;2024-02-26T02:11:16;98108.59;;;4.68;75.58
84289;BME280;75147;50.294;18.660;2024-02-26T02:13:42;98099.56;;;4.62;75.37
84289;BME280;75147;50.294;18.660;2024-02-26T02:16:07;98098.84;;;4.60;75.61
84289;BME280;75147;50.294;18.660;2024-02-26T02:18:33;98090.56;;;4.57;75.95
84289;BME280;75147;50.294;18.660;2024-02-26T02:21:00;98090.66;;;4.55;75.94
84289;BME280;75147;50.294;18.660;2024-02-26T02:23:25;98089.81;;;4.55;76.40
84289;BME280;75147;50.294;18.660;2024-02-26T02:25:51;98088.31;;;4.52;75.94
84289;BME280;75147;50.294;18.660;2024-02-26T02:28:17;98092.63;;;4.52;76.20
84289;BME280;75147;50.294;18.660;2024-02-26T02:30:43;98079.97;;;4.49;76.72
84289;BME280;75147;50.294;18.660;2024-02-26T02:33:09;98088.50;;;4.49;76.50
84289;BME280;75147;50.294;18.660;2024-02-26T02:35:34;98089.44;;;4.48;76.54
84289;BME280;75147;50.294;18.660;2024-02-26T02:38:00;98094.69;;;4.47;76.32
84289;BME280;75147;50.294;18.660;2024-02-26T02:40:25;98087.09;;;4.45;76.31
84289;BME280;75147;50.294;18.660;2024-02-26T02:42:50;98101.00;;;4.43;76.31
84289;BME280;75147;50.294;18.660;2024-02-26T02:45:16;98098.66;;;4.39;76.65
84289;BME280;75147;50.294;18.660;2024-02-26T02:47:41;98095.56;;;4.34;76.77
84289;BME280;75147;50.294;18.660;2024-02-26T02:50:07;98092.38;;;4.31;76.63
84289;BME280;75147;50.294;18.660;2024-02-26T02:52:32;98100.94;;;4.31;76.52
84289;BME280;75147;50.294;18.660;2024-02-26T02:54:58;98092.59;;;4.28;77.19
84289;BME280;75147;50.294;18.660;2024-02-26T02:57:23;98085.81;;;4.27;76.72
84289;BME280;75147;50.294;18.660;2024-02-26T02:59:49;98092.00;;;4.24;76.70
84289;BME280;75147;50.294;18.660;2024-02-26T03:02:14;98087.06;;;4.21;77.30
84289;BME280;75147;50.294;18.660;2024-02-26T03:04:39;98079.69;;;4.17;77.03
84289;BME280;75147;50.294;18.660;2024-02-26T03:07:05;98088.13;;;4.19;77.27
84289;BME280;75147;50.294;18.660;2024-02-26T03:09:30;98086.47;;;4.18;77.18
84289;BME280;75147;50.294;18.660;2024-02-26T03:11:56;98089.97;;;4.17;77.77
84289;BME280;75147;50.294;18.660;2024-02-26T03:14:21;98075.88;;;4.10;77.92
84289;BME280;75147;50.294;18.660;2024-02-26T03:16:47;98081.75;;;4.12;78.06
84289;BME280;75147;50.294;18.660;2024-02-26T03:19:15;98085.16;;;4.12;78.09
84289;BME280;75147;50.294;18.660;2024-02-26T03:21:43;98076.72;;;4.10;77.92
84289;BME280;75147;50.294;18.660;2024-02-26T03:24:09;98078.47;;;4.10;78.41
84289;BME280;75147;50.294;18.660;2024-02-26T03:26:36;98079.38;;;4.09;78.32
84289;BME280;75147;50.294;18.660;2024-02-26T03:29:01;98070.16;;;4.06;78.53
84289;BME280;75147;50.294;18.660;2024-02-26T03:31:28;98070.25;;;4.05;78.00
84289;BME280;75147;50.294;18.660;2024-02-26T03:33:53;98067.78;;;4.03;78.36
84289;BME280;75147;50.294;18.660;2024-02-26T03:36:19;98075.59;;;4.01;78.47
84289;BME280;75147;50.294;18.660;2024-02-26T03:38:44;98060.31;;;4.00;78.20
84289;BME280;75147;50.294;18.660;2024-02-26T03:41:10;98059.47;;;3.99;78.41
84289;BME280;75147;50.294;18.660;2024-02-26T03:43:35;98057.84;;;3.98;78.17
84289;BME280;75147;50.294;18.660;2024-02-26T03:46:00;98062.97;;;3.98;78.07
84289;BME280;75147;50.294;18.660;2024-02-26T03:48:26;98067.28;;;3.98;78.03
84289;BME280;75147;50.294;18.660;2024-02-26T03:50:51;98056.53;;;3.93;78.28
84289;BME280;75147;50.294;18.660;2024-02-26T03:53:17;98064.81;;;3.96;78.43
84289;BME280;75147;50.294;18.660;2024-02-26T03:55:43;98057.34;;;3.93;78.07
84289;BME280;75147;50.294;18.660;2024-02-26T03:58:08;98051.47;;;3.91;78.80
84289;BME280;75147;50.294;18.660;2024-02-26T04:00:34;98051.69;;;3.88;78.39
84289;BME280;75147;50.294;18.660;2024-02-26T04:02:59;98057.53;;;3.90;78.15
84289;BME280;75147;50.294;18.660;2024-02-26T04:05:25;98058.47;;;3.89;78.06
84289;BME280;75147;50.294;18.660;2024-02-26T04:07:50;98055.31;;;3.86;78.21
84289;BME280;75147;50.294;18.660;2024-02-26T04:10:16;98058.69;;;3.86;78.10
84289;BME280;75147;50.294;18.660;2024-02-26T04:12:42;98055.41;;;3.84;78.09
84289;BME280;75147;50.294;18.660;2024-02-26T04:15:08;98050.34;;;3.83;78.57
84289;BME280;75147;50.294;18.660;2024-02-26T04:17:34;98055.31;;;3.86;78.66
84289;BME280;75147;50.294;18.660;2024-02-26T04:19:59;98062.09;;;3.87;78.70
84289;BME280;75147;50.294;18.660;2024-02-26T04:22:25;98054.25;;;3.88;79.07
84289;BME280;75147;50.294;18.660;2024-02-26T04:24:50;98045.84;;;3.86;79.01
84289;BME280;75147;50.294;18.660;2024-02-26T04:27:15;98045.84;;;3.86;78.87
84289;BME280;75147;50.294;18.660;2024-02-26T04:29:41;98048.28;;;3.88;78.86
84289;BME280;75147;50.294;18.660;2024-02-26T04:32:06;98046.66;;;3.87;78.75
84289;BME280;75147;50.294;18.660;2024-02-26T04:34:32;98046.88;;;3.84;78.52
84289;BME280;75147;50.294;18.660;2024-02-26T04:36:57;98039.25;;;3.82;78.49
84289;BME280;75147;50.294;18.660;2024-02-26T04:39:22;98038.44;;;3.82;78.68
84289;BME280;75147;50.294;18.660;2024-02-26T04:41:48;98041.34;;;3.77;78.62
84289;BME280;75147;50.294;18.660;2024-02-26T04:44:13;98048.13;;;3.78;78.82
84289;BME280;75147;50.294;18.660;2024-02-26T04:46:39;98053.44;;;3.75;79.01
84289;BME280;75147;50.294;18.660;2024-02-26T04:49:04;98047.50;;;3.75;78.92
84289;BME280;75147;50.294;18.660;2024-02-26T04:51:29;98053.44;;;3.75;78.54
84289;BME280;75147;50.294;18.660;2024-02-26T04:53:55;98054.50;;;3.73;79.10
84289;BME280;75147;50.294;18.660;2024-02-26T04:56:21;98051.09;;;3.72;79.24
84289;BME280;75147;50.294;18.660;2024-02-26T04:58:47;98040.22;;;3.69;79.30
84289;BME280;75147;50.294;18.660;2024-02-26T05:01:12;98046.06;;;3.71;79.55
84289;BME280;75147;50.294;18.660;2024-02-26T05:03:38;98050.38;;;3.70;79.50
84289;BME280;75147;50.294;18.660;2024-02-26T05:06:04;98056.44;;;3.69;79.22
84289;BME280;75147;50.294;18.660;2024-02-26T05:08:30;98057.34;;;3.68;79.23
84289;BME280;75147;50.294;18.660;2024-02-26T05:10:56;98053.28;;;3.66;79.25
84289;BME280;75147;50.294;18.660;2024-02-26T05:13:21;98055.94;;;3.64;79.56
84289;BME280;75147;50.294;18.660;2024-02-26T05:15:47;98055.84;;;3.66;79.60
84289;BME280;75147;50.294;18.660;2024-02-26T05:18:15;98056.84;;;3.63;79.31
84289;BME280;75147;50.294;18.660;2024-02-26T05:20:40;98052.66;;;3.62;79.46
84289;BME280;75147;50.294;18.660;2024-02-26T05:23:06;98052.53;;;3.64;79.50
84289;BME280;75147;50.294;18.660;2024-02-26T05:25:31;98062.00;;;3.63;79.71
84289;BME280;75147;50.294;18.660;2024-02-26T05:27:56;98056.84;;;3.63;79.51
84289;BME280;75147;50.294;18.660;2024-02-26T05:30:22;98059.53;;;3.61;79.66
84289;BME280;75147;50.294;18.660;2024-02-26T05:32:47;98049.56;;;3.57;79.69
84289;BME280;75147;50.294;18.660;2024-02-26T05:35:12;98064.78;;;3.60;79.87
84289;BME280;75147;50.294;18.660;2024-02-26T05:37:38;98063.34;;;3.56;79.60
84289;BME280;75147;50.294;18.660;2024-02-26T05:40:05;98063.34;;;3.56;79.79
84289;BME280;75147;50.294;18.660;2024-02-26T05:42:30;98063.44;;;3.54;79.72
84289;BME280;75147;50.294;18.660;2024-02-26T05:44:56;98063.66;;;3.51;79.39
84289;BME280;75147;50.294;18.660;2024-02-26T05:47:22;98059.44;;;3.50;79.74
84289;BME280;75147;50.294;18.660;2024-02-26T05:49:47;98064.47;;;3.52;79.93
84289;BME280;75147;50.294;18.660;2024-02-26T05:52:14;98068.06;;;3.49;79.56
84289;BME280;75147;50.294;18.660;2024-02-26T05:54:39;98064.66;;;3.49;79.93
84289;BME280;75147;50.294;18.660;2024-02-26T05:57:04;98068.69;;;3.53;80.13
84289;BME280;75147;50.294;18.660;2024-02-26T05:59:30;98072.78;;;3.55;79.78
84289;BME280;75147;50.294;18.660;2024-02-26T06:01:55;98071.84;;;3.56;80.54
84289;BME280;75147;50.294;18.660;2024-02-26T06:04:21;98081.94;;;3.59;80.24
84289;BME280;75147;50.294;18.660;2024-02-26T06:06:46;98076.91;;;3.58;80.17
84289;BME280;75147;50.294;18.660;2024-02-26T06:09:12;98072.16;;;3.65;80.21
84289;BME280;75147;50.294;18.660;2024-02-26T06:11:37;98083.25;;;3.65;80.19
84289;BME280;75147;50.294;18.660;2024-02-26T06:14:03;98072.91;;;3.67;80.17
84289;BME280;75147;50.294;18.660;2024-02-26T06:16:28;98076.28;;;3.67;79.96
84289;BME280;75147;50.294;18.660;2024-02-26T06:18:54;98087.06;;;3.72;79.93
84289;BME280;75147;50.294;18.660;2024-02-26T06:21:19;98092.09;;;3.74;79.90
84289;BME280;75147;50.294;18.660;2024-02-26T06:23:44;98096.09;;;3.78;79.96
84289;BME280;75147;50.294;18.660;2024-02-26T06:26:10;98096.81;;;3.80;79.72
84289;BME280;75147;50.294;18.660;2024-02-26T06:28:35;98099.25;;;3.81;79.67
84289;BME280;75147;50.294;18.660;2024-02-26T06:31:01;98099.97;;;3.83;79.70
84289;BME280;75147;50.294;18.660;2024-02-26T06:33:27;98104.19;;;3.84;79.87
84289;BME280;75147;50.294;18.660;2024-02-26T06:35:53;98097.41;;;3.83;80.01
84289;BME280;75147;50.294;18.660;2024-02-26T06:38:18;98103.97;;;3.87;79.94
84289;BME280;75147;50.294;18.660;2024-02-26T06:40:44;98105.75;;;3.87;79.63
84289;BME280;75147;50.294;18.660;2024-02-26T06:43:09;98103.78;;;3.90;79.74
84289;BME280;75147;50.294;18.660;2024-02-26T06:45:35;98100.06;;;3.94;79.49
84289;BME280;75147;50.294;18.660;2024-02-26T06:48:01;98104.19;;;3.97;79.55
84289;BME280;75147;50.294;18.660;2024-02-26T06:50:27;98097.28;;;3.97;79.37
84289;BME280;75147;50.294;18.660;2024-02-26T06:52:52;98096.38;;;3.98;79.44
84289;BME280;75147;50.294;18.660;2024-02-26T06:55:18;98103.66;;;4.05;79.54
84289;BME280;75147;50.294;18.660;2024-02-26T06:57:43;98112.69;;;4.10;79.41
84289;BME280;75147;50.294;18.660;2024-02-26T07:00:09;98098.91;;;4.11;79.16
84289;BME280;75147;50.294;18.660;2024-02-26T07:02:39;98098.69;;;4.14;79.30
84289;BME280;75147;50.294;18.660;2024-02-26T07:05:05;98094.06;;;4.19;78.98
84289;BME280;75147;50.294;18.660;2024-02-26T07:07:31;98097.13;;;4.24;79.17
84289;BME280;75147;50.294;18.660;2024-02-26T07:09:56;98102.69;;;4.31;78.83
84289;BME280;75147;50.294;18.660;2024-02-26T07:12:22;98098.13;;;4.34;78.85
84289;BME280;75147;50.294;18.660;2024-02-26T07:14:48;98095.34;;;4.37;78.66
84289;BME280;75147;50.294;18.660;2024-02-26T07:17:14;98099.25;;;4.43;78.51
84289;BME280;75147;50.294;18.660;2024-02-26T07:19:41;98096.47;;;4.46;78.46
84289;BME280;75147;50.294;18.660;2024-02-26T07:22:06;98100.00;;;4.56;78.37
84289;BME280;75147;50.294;18.660;2024-02-26T07:24:32;98096.91;;;4.64;78.49
84289;BME280;75147;50.294;18.660;2024-02-26T07:26:57;98088.03;;;4.68;78.11
84289;BME280;75147;50.294;18.660;2024-02-26T07:29:23;98094.03;;;4.79;78.32
84289;BME280;75147;50.294;18.660;2024-02-26T07:31:48;98095.94;;;4.89;78.26
84289;BME280;75147;50.294;18.660;2024-02-26T07:34:13;98092.00;;;4.96;77.72
84289;BME280;75147;50.294;18.660;2024-02-26T07:36:39;98097.41;;;5.04;77.80
84289;BME280;75147;50.294;18.660;2024-02-26T07:39:05;98096.63;;;5.14;77.27
84289;BME280;75147;50.294;18.660;2024-02-26T07:41:30;98098.53;;;5.24;77.52
84289;BME280;75147;50.294;18.660;2024-02-26T07:43:56;98097.63;;;5.36;76.83
84289;BME280;75147;50.294;18.660;2024-02-26T07:46:21;98087.59;;;5.44;76.63
84289;BME280;75147;50.294;18.660;2024-02-26T07:48:47;98096.25;;;5.54;76.78
84289;BME280;75147;50.294;18.660;2024-02-26T07:51:13;98098.25;;;5.61;76.51
84289;BME280;75147;50.294;18.660;2024-02-26T07:53:39;98100.94;;;5.71;76.16
84289;BME280;75147;50.294;18.660;2024-02-26T07:56:05;98102.13;;;5.78;76.70
84289;BME280;75147;50.294;18.660;2024-02-26T07:58:32;98108.34;;;5.87;76.69
84289;BME280;75147;50.294;18.660;2024-02-26T08:00:57;98104.38;;;5.94;76.45
84289;BME280;75147;50.294;18.660;2024-02-26T08:03:23;98102.28;;;5.99;76.15
84289;BME280;75147;50.294;18.660;2024-02-26T08:05:48;98104.38;;;6.05;75.25
84289;BME280;75147;50.294;18.660;2024-02-26T08:08:14;98096.31;;;6.10;75.63
84289;BME280;75147;50.294;18.660;2024-02-26T08:10:39;98095.22;;;6.12;75.15
84289;BME280;75147;50.294;18.660;2024-02-26T08:13:04;98101.44;;;6.21;75.55
84289;BME280;75147;50.294;18.660;2024-02-26T08:15:34;98100.16;;;6.26;75.05
84289;BME280;75147;50.294;18.660;2024-02-26T08:18:00;98104.00;;;6.32;75.27
84289;BME280;75147;50.294;18.660;2024-02-26T08:20:29;98102.84;;;6.36;75.29
84289;BME280;75147;50.294;18.660;2024-02-26T08:22:55;98098.84;;;6.43;75.10
84289;BME280;75147;50.294;18.660;2024-02-26T08:25:21;98103.63;;;6.48;75.07
84289;BME280;75147;50.294;18.660;2024-02-26T08:27:46;98105.84;;;6.52;75.41
84289;BME280;75147;50.294;18.660;2024-02-26T08:30:16;98104.69;;;6.56;75.28
84289;BME280;75147;50.294;18.660;2024-02-26T08:32:48;98108.53;;;6.62;74.68
84289;BME280;75147;50.294;18.660;2024-02-26T08:35:14;98105.56;;;6.66;75.12
84289;BME280;75147;50.294;18.660;2024-02-26T08:37:39;98101.69;;;6.72;75.11
84289;BME280;75147;50.294;18.660;2024-02-26T08:40:06;98103.09;;;6.76;74.34
84289;BME280;75147;50.294;18.660;2024-02-26T08:42:31;98103.44;;;6.83;74.99
84289;BME280;75147;50.294;18.660;2024-02-26T08:44:57;98107.28;;;6.88;74.07
84289;BME280;75147;50.294;18.660;2024-02-26T08:47:25;98094.00;;;6.93;74.52
84289;BME280;75147;50.294;18.660;2024-02-26T08:49:51;98098.78;;;6.97;74.41
84289;BME280;75147;50.294;18.660;2024-02-26T08:52:16;98101.78;;;7.02;73.94
84289;BME280;75147;50.294;18.660;2024-02-26T08:54:41;98104.56;;;7.10;73.96
84289;BME280;75147;50.294;18.660;2024-02-26T08:57:07;98101.50;;;7.16;73.70
84289;BME280;75147;50.294;18.660;2024-02-26T08:59:32;98103.47;;;7.24;73.78
84289;BME280;75147;50.294;18.660;2024-02-26T09:01:57;98105.41;;;7.32;73.97
84289;BME280;75147;50.294;18.660;2024-02-26T09:04:23;98084.25;;;7.38;73.43
84289;BME280;75147;50.294;18.660;2024-02-26T09:06:48;98096.25;;;7.48;73.22
84289;BME280;75147;50.294;18.660;2024-02-26T09:09:14;98094.69;;;7.57;73.28
84289;BME280;75147;50.294;18.660;2024-02-26T09:11:40;98089.00;;;7.63;73.13
84289;BME280;75147;50.294;18.660;2024-02-26T09:14:05;98085.78;;;7.71;73.07
84289;BME280;75147;50.294;18.660;2024-02-26T09:16:31;98080.81;;;7.79;72.57
84289;BME280;75147;50.294;18.660;2024-02-26T09:18:56;98086.69;;;7.90;72.72
84289;BME280;75147;50.294;18.660;2024-02-26T09:21:22;98083.47;;;7.98;72.48
84289;BME280;75147;50.294;18.660;2024-02-26T09:23:51;98085.41;;;8.06;72.32
84289;BME280;75147;50.294;18.660;2024-02-26T09:26:17;98082.00;;;8.15;72.22
84289;BME280;75147;50.294;18.660;2024-02-26T09:28:43;98086.41;;;8.24;71.28
84289;BME280;75147;50.294;18.660;2024-02-26T09:31:08;98085.88;;;8.30;71.27
84289;BME280;75147;50.294;18.660;2024-02-26T09:33:34;98083.06;;;8.43;71.22
84289;BME280;75147;50.294;18.660;2024-02-26T09:35:59;98085.53;;;8.54;71.18
84289;BME280;75147;50.294;18.660;2024-02-26T09:38:28;98092.38;;;8.64;70.50
84289;BME280;75147;50.294;18.660;2024-02-26T09:40:58;98077.94;;;8.71;71.31
84289;BME280;75147;50.294;18.660;2024-02-26T09:43:25;98085.72;;;8.81;70.56
84289;BME280;75147;50.294;18.660;2024-02-26T09:45:57;98090.78;;;8.92;70.25
84289;BME280;75147;50.294;18.660;2024-02-26T09:48:23;98090.75;;;9.02;69.72
84289;BME280;75147;50.294;18.660;2024-02-26T09:50:49;98088.84;;;9.13;69.58
84289;BME280;75147;50.294;18.660;2024-02-26T09:53:14;98085.31;;;9.24;68.93
84289;BME280;75147;50.294;18.660;2024-02-26T09:55:40;98089.50;;;9.35;69.34
84289;BME280;75147;50.294;18.660;2024-02-26T09:58:06;98087.31;;;9.49;68.74
84289;BME280;75147;50.294;18.660;2024-02-26T10:00:37;98085.22;;;9.63;67.71
84289;BME280;75147;50.294;18.660;2024-02-26T10:03:06;98091.34;;;9.71;68.01
84289;BME280;75147;50.294;18.660;2024-02-26T10:05:35;98087.75;;;9.82;68.39
84289;BME280;75147;50.294;18.660;2024-02-26T10:08:04;98082.13;;;9.96;67.40
84289;BME280;75147;50.294;18.660;2024-02-26T10:10:30;98086.03;;;10.10;66.71
84289;BME280;75147;50.294;18.660;2024-02-26T10:12:57;98082.81;;;10.25;66.10
84289;BME280;75147;50.294;18.660;2024-02-26T10:15:24;98081.50;;;10.39;66.58
84289;BME280;75147;50.294;18.660;2024-02-26T10:17:50;98082.53;;;10.56;64.62
84289;BME280;75147;50.294;18.660;2024-02-26T10:20:16;98084.59;;;10.70;65.28
84289;BME280;75147;50.294;18.660;2024-02-26T10:22:48;98078.06;;;10.84;65.41
84289;BME280;75147;50.294;18.660;2024-02-26T10:25:14;98082.59;;;10.99;65.14
84289;BME280;75147;50.294;18.660;2024-02-26T10:27:41;98079.47;;;11.13;64.94
84289;BME280;75147;50.294;18.660;2024-02-26T10:30:20;98078.94;;;11.28;64.88
84289;BME280;75147;50.294;18.660;2024-02-26T10:32:51;98078.22;;;11.43;64.61
84289;BME280;75147;50.294;18.660;2024-02-26T10:35:17;98081.63;;;11.62;63.43
84289;BME280;75147;50.294;18.660;2024-02-26T10:37:43;98076.69;;;11.76;62.26
84289;BME280;75147;50.294;18.660;2024-02-26T10:40:13;98074.47;;;11.89;62.25
84289;BME280;75147;50.294;18.660;2024-02-26T10:42:39;98067.06;;;12.03;61.19
84289;BME280;75147;50.294;18.660;2024-02-26T10:45:06;98063.38;;;12.13;60.95
84289;BME280;75147;50.294;18.660;2024-02-26T10:47:32;98055.75;;;12.20;61.04
84289;BME280;75147;50.294;18.660;2024-02-26T10:49:59;98064.56;;;12.27;61.08
84289;BME280;75147;50.294;18.660;2024-02-26T10:52:25;98062.94;;;12.34;59.84
84289;BME280;75147;50.294;18.660;2024-02-26T10:54:54;98053.50;;;12.41;59.70
84289;BME280;75147;50.294;18.660;2024-02-26T10:57:21;98053.88;;;12.46;59.91
84289;BME280;75147;50.294;18.660;2024-02-26T10:59:48;98066.06;;;12.54;59.88
84289;BME280;75147;50.294;18.660;2024-02-26T11:02:14;98063.50;;;12.62;59.41
84289;BME280;75147;50.294;18.660;2024-02-26T11:04:40;98066.78;;;12.72;59.54
84289;BME280;75147;50.294;18.660;2024-02-26T11:07:08;98063.19;;;12.81;59.03
84289;BME280;75147;50.294;18.660;2024-02-26T11:09:35;98052.78;;;12.89;58.79
84289;BME280;75147;50.294;18.660;2024-02-26T11:12:02;98046.44;;;12.92;57.81
84289;BME280;75147;50.294;18.660;2024-02-26T11:14:29;98044.47;;;12.94;57.89
84289;BME280;75147;50.294;18.660;2024-02-26T11:16:57;98047.59;;;12.97;57.49
84289;BME280;75147;50.294;18.660;2024-02-26T11:19:24;98042.69;;;13.02;57.84
84289;BME280;75147;50.294;18.660;2024-02-26T11:21:50;98045.63;;;13.07;57.98
84289;BME280;75147;50.294;18.660;2024-02-26T11:24:16;98050.88;;;13.15;57.85
84289;BME280;75147;50.294;18.660;2024-02-26T11:26:50;98038.16;;;13.21;57.81
84289;BME280;75147;50.294;18.660;2024-02-26T11:29:22;98039.28;;;13.26;57.99
84289;BME280;75147;50.294;18.660;2024-02-26T11:31:48;98039.63;;;13.31;58.34
84289;BME280;75147;50.294;18.660;2024-02-26T11:34:14;98045.00;;;13.38;57.69
84289;BME280;75147;50.294;18.660;2024-02-26T11:36:39;98036.66;;;13.42;57.02
84289;BME280;75147;50.294;18.660;2024-02-26T11:39:06;98035.69;;;13.43;56.93
84289;BME280;75147;50.294;18.660;2024-02-26T11:41:32;98032.56;;;13.48;57.29
84289;BME280;75147;50.294;18.660;2024-02-26T11:44:01;98037.78;;;13.48;57.38
84289;BME280;75147;50.294;18.660;2024-02-26T11:46:29;98039.28;;;13.50;57.74
84289;BME280;75147;50.294;18.660;2024-02-26T11:49:02;98036.50;;;13.52;56.94
84289;BME280;75147;50.294;18.660;2024-02-26T11:51:32;98035.50;;;13.53;57.37
84289;BME280;75147;50.294;18.660;2024-02-26T11:53:58;98036.31;;;13.53;57.24
84289;BME280;75147;50.294;18.660;2024-02-26T11:56:24;98043.16;;;13.54;56.96
84289;BME280;75147;50.294;18.660;2024-02-26T11:58:59;98043.00;;;13.56;56.77
84289;BME280;75147;50.294;18.660;2024-02-26T12:06:47;98039.88;;;13.61;56.95
84289;BME280;75147;50.294;18.660;2024-02-26T12:09:13;98034.34;;;13.64;56.79
84289;BME280;75147;50.294;18.660;2024-02-26T12:11:40;98032.69;;;13.71;56.60
84289;BME280;75147;50.294;18.660;2024-02-26T12:14:07;98023.69;;;13.73;56.16
84289;BME280;75147;50.294;18.660;2024-02-26T12:16:40;98032.34;;;13.82;56.59
84289;BME280;75147;50.294;18.660;2024-02-26T12:19:09;98029.03;;;13.88;56.67
84289;BME280;75147;50.294;18.660;2024-02-26T12:21:37;98024.28;;;13.91;55.89
84289;BME280;75147;50.294;18.660;2024-02-26T12:24:13;98022.63;;;13.98;56.54
84289;BME280;75147;50.294;18.660;2024-02-26T12:26:40;98018.88;;;14.01;56.21
84289;BME280;75147;50.294;18.660;2024-02-26T12:29:06;98018.34;;;14.06;56.30
84289;BME280;75147;50.294;18.660;2024-02-26T12:31:32;98019.66;;;14.10;56.23
84289;BME280;75147;50.294;18.660;2024-02-26T12:33:59;98013.91;;;14.14;55.73
84289;BME280;75147;50.294;18.660;2024-02-26T12:36:25;98011.44;;;14.21;56.00
84289;BME280;75147;50.294;18.660;2024-02-26T12:38:51;98026.91;;;14.30;55.80
84289;BME280;75147;50.294;18.660;2024-02-26T12:41:17;98021.97;;;14.35;54.83
84289;BME280;75147;50.294;18.660;2024-02-26T12:43:43;98021.47;;;14.40;55.23
84289;BME280;75147;50.294;18.660;2024-02-26T12:46:08;98007.06;;;14.44;54.41
84289;BME280;75147;50.294;18.660;2024-02-26T12:48:33;98021.59;;;14.47;55.02
84289;BME280;75147;50.294;18.660;2024-02-26T12:50:59;98020.50;;;14.41;54.75
84289;BME280;75147;50.294;18.660;2024-02-26T12:53:26;98016.59;;;14.37;54.72
84289;BME280;75147;50.294;18.660;2024-02-26T12:55:56;98024.31;;;14.30;54.69
84289;BME280;75147;50.294;18.660;2024-02-26T12:58:22;98016.63;;;14.29;55.35